createdAt,value
2023-04-12T00:00:18.037Z,78.00
2023-04-12T00:02:45.102Z,77.80
2023-04-12T00:05:12.344Z,77.80
2023-04-12T00:07:39.411Z,78.10
2023-04-12T00:10:08.008Z,78.10
2023-04-12T00:12:35.193Z,77.60
2023-04-12T00:15:02.102Z,77.50
2023-04-12T00:17:28.972Z,77.60
2023-04-12T00:19:56.199Z,77.70
2023-04-12T00:22:24.269Z,77.40
2023-04-12T00:24:51.268Z,77.20
2023-04-12T00:27:18.238Z,77.60
2023-04-12T00:29:45.108Z,77.70
2023-04-12T00:32:11.998Z,77.40
2023-04-12T00:34:38.969Z,77.20
2023-04-12T00:37:05.911Z,77.10
2023-04-12T00:39:32.798Z,77.00
2023-04-12T00:42:03.585Z,77.10
2023-04-12T00:44:31.128Z,77.30
2023-04-12T00:46:58.700Z,77.60
2023-04-12T00:49:31.007Z,77.60
2023-04-12T00:52:04.616Z,77.30
2023-04-12T00:54:32.884Z,77.20
2023-04-12T00:57:00.818Z,77.40
2023-04-12T00:59:28.259Z,77.50
2023-04-12T01:01:56.682Z,77.30
2023-04-12T01:04:26.534Z,77.30
2023-04-12T01:07:15.516Z,77.70
2023-04-12T01:09:45.562Z,77.80
2023-04-12T01:12:12.500Z,77.80
2023-04-12T01:14:39.377Z,77.80
2023-04-12T01:17:07.590Z,78.00
2023-04-12T01:19:46.825Z,78.00
2023-04-12T01:22:18.350Z,77.40
2023-04-12T01:24:54.561Z,77.30
2023-04-12T01:27:30.114Z,77.20
2023-04-12T01:29:58.283Z,77.20
2023-04-12T01:32:26.027Z,77.00
2023-04-12T01:34:53.686Z,76.50
2023-04-12T01:37:21.712Z,76.50
2023-04-12T01:42:33.568Z,76.70
2023-04-12T01:45:00.789Z,76.60
2023-04-12T01:47:27.918Z,76.40
2023-04-12T01:50:13.417Z,76.50
2023-04-12T01:52:45.381Z,76.50
2023-04-12T01:55:14.105Z,76.60
2023-04-12T01:57:43.117Z,76.50
2023-04-12T02:00:11.905Z,76.60
2023-04-12T02:02:40.200Z,76.20
2023-04-12T02:05:08.882Z,75.90
2023-04-12T02:07:36.171Z,75.90
2023-04-12T02:10:03.210Z,76.00
2023-04-12T02:12:30.531Z,76.10
2023-04-12T02:14:58.317Z,76.20
2023-04-12T02:17:25.287Z,76.20
2023-04-12T02:19:52.203Z,76.30
2023-04-12T02:22:19.152Z,76.30
2023-04-12T02:24:46.011Z,76.30
2023-04-12T02:27:12.854Z,76.40
2023-04-12T02:29:39.773Z,76.70
2023-04-12T02:32:06.635Z,76.80
2023-04-12T02:34:34.462Z,76.80
2023-04-12T02:37:01.573Z,76.50
2023-04-12T02:39:31.336Z,76.30
2023-04-12T02:41:58.276Z,76.40
2023-04-12T02:44:25.296Z,76.40
2023-04-12T02:46:52.260Z,76.70
2023-04-12T02:49:19.202Z,76.70
2023-04-12T02:51:46.412Z,76.50
2023-04-12T02:54:13.346Z,76.60
2023-04-12T02:56:40.758Z,76.40
2023-04-12T02:59:07.605Z,76.10
2023-04-12T03:01:34.900Z,76.00
2023-04-12T03:04:04.618Z,76.00
2023-04-12T03:06:32.221Z,76.20
2023-04-12T03:08:59.739Z,76.60
2023-04-12T03:11:26.814Z,76.70
2023-04-12T03:13:54.019Z,76.90
2023-04-12T03:16:26.108Z,76.80
2023-04-12T03:18:53.100Z,76.70
2023-04-12T03:21:19.967Z,76.70
2023-04-12T03:23:46.825Z,76.50
2023-04-12T03:26:13.918Z,76.40
2023-04-12T03:28:41.448Z,76.10
2023-04-12T03:31:08.481Z,75.50
2023-04-12T03:33:35.393Z,75.10
2023-04-12T03:36:02.339Z,74.90
2023-04-12T03:38:29.167Z,74.90
2023-04-12T03:40:56.096Z,74.90
2023-04-12T03:43:23.074Z,74.90
2023-04-12T03:45:50.077Z,75.00
2023-04-12T03:48:17.479Z,75.00
2023-04-12T03:50:44.696Z,75.10
2023-04-12T03:53:11.973Z,75.10
2023-04-12T03:55:38.920Z,75.20
2023-04-12T03:58:05.794Z,75.50
2023-04-12T04:00:32.738Z,75.50
2023-04-12T04:03:03.693Z,75.30
2023-04-12T04:05:31.448Z,75.30
2023-04-12T04:08:02.779Z,75.20
2023-04-12T04:10:29.856Z,75.20
2023-04-12T04:12:56.728Z,75.20
2023-04-12T04:15:25.160Z,75.50
2023-04-12T04:17:52.541Z,75.60
2023-04-12T04:20:20.348Z,75.60
2023-04-12T04:22:55.094Z,75.40
2023-04-12T04:25:22.088Z,75.40
2023-04-12T04:27:49.678Z,75.20
2023-04-12T04:30:17.077Z,75.10
2023-04-12T04:32:44.131Z,75.10
2023-04-12T04:35:11.481Z,75.10
2023-04-12T04:37:38.334Z,75.10
2023-04-12T04:40:12.090Z,75.20
2023-04-12T04:42:39.897Z,75.30
2023-04-12T04:45:13.789Z,74.90
2023-04-12T04:47:40.872Z,75.00
2023-04-12T04:50:08.097Z,75.00
2023-04-12T04:52:35.055Z,74.80
2023-04-12T04:55:04.030Z,74.90
2023-04-12T04:57:32.684Z,75.00
2023-04-12T04:59:59.490Z,74.80
2023-04-12T05:02:26.567Z,74.70
2023-04-12T05:04:56.504Z,74.60
2023-04-12T05:07:23.838Z,74.70
2023-04-12T05:09:50.750Z,74.70
2023-04-12T05:12:17.720Z,74.80
2023-04-12T05:14:48.036Z,74.70
2023-04-12T05:17:16.812Z,74.70
2023-04-12T05:19:45.161Z,74.80
2023-04-12T05:22:13.117Z,74.70
2023-04-12T05:24:40.096Z,74.90
2023-04-12T05:27:07.139Z,74.90
2023-04-12T05:29:34.055Z,74.90
2023-04-12T05:32:01.034Z,74.80
2023-04-12T05:34:27.895Z,74.60
2023-04-12T05:36:54.832Z,75.10
2023-04-12T05:39:21.854Z,75.50
2023-04-12T05:41:48.972Z,75.40
2023-04-12T05:44:16.223Z,75.10
2023-04-12T05:46:43.227Z,75.00
2023-04-12T05:49:10.267Z,75.00
2023-04-12T05:51:41.275Z,75.10
2023-04-12T05:54:09.300Z,75.00
2023-04-12T05:56:36.347Z,75.00
2023-04-12T05:59:04.867Z,75.30
2023-04-12T06:01:35.268Z,75.30
2023-04-12T06:04:06.351Z,75.30
2023-04-12T06:06:33.811Z,75.20
2023-04-12T06:09:01.361Z,75.10
2023-04-12T06:11:28.501Z,75.30
2023-04-12T06:13:55.772Z,75.30
2023-04-12T06:16:22.787Z,75.30
2023-04-12T06:18:49.735Z,75.20
2023-04-12T06:21:16.684Z,75.10
2023-04-12T06:23:45.518Z,75.00
2023-04-12T06:26:12.710Z,74.90
2023-04-12T06:28:39.660Z,74.80
2023-04-12T06:31:07.154Z,74.80
2023-04-12T06:33:34.213Z,74.80
2023-04-12T06:36:01.336Z,74.80
2023-04-12T06:38:28.327Z,74.80
2023-04-12T06:40:55.526Z,74.70
2023-04-12T06:43:23.090Z,74.80
2023-04-12T06:45:50.439Z,75.00
2023-04-12T06:48:17.432Z,75.00
2023-04-12T06:50:47.097Z,75.10
2023-04-12T06:53:14.016Z,75.30
2023-04-12T06:55:41.319Z,75.40
2023-04-12T06:58:08.250Z,75.50
2023-04-12T07:00:35.342Z,75.60
2023-04-12T07:03:02.370Z,75.60
2023-04-12T07:05:29.605Z,75.60
2023-04-12T07:07:56.549Z,75.60
2023-04-12T07:10:23.449Z,75.60
2023-04-12T07:12:52.261Z,75.70
2023-04-12T07:15:19.321Z,75.80
2023-04-12T07:17:46.333Z,76.00
2023-04-12T07:20:13.387Z,76.10
2023-04-12T07:22:40.525Z,76.20
2023-04-12T07:25:10.416Z,76.40
2023-04-12T07:27:37.343Z,76.60
2023-04-12T07:30:04.482Z,76.80
2023-04-12T07:32:31.552Z,76.70
2023-04-12T07:34:58.856Z,76.40
2023-04-12T07:37:25.730Z,76.10
2023-04-12T07:39:53.321Z,76.10
2023-04-12T07:42:20.503Z,76.20
2023-04-12T07:44:47.494Z,76.10
2023-04-12T07:47:14.398Z,76.10
2023-04-12T07:49:41.345Z,76.10
2023-04-12T07:52:08.534Z,76.30
2023-04-12T07:54:35.800Z,76.40
2023-04-12T07:57:03.865Z,76.40
2023-04-12T07:59:31.761Z,76.30
2023-04-12T08:01:58.667Z,76.20
2023-04-12T08:04:25.874Z,76.10
2023-04-12T08:06:52.881Z,76.30
2023-04-12T08:09:19.767Z,76.50
2023-04-12T08:11:47.471Z,76.70
2023-04-12T08:14:14.445Z,76.90
2023-04-12T08:16:41.396Z,76.80
2023-04-12T08:19:08.414Z,76.70
2023-04-12T08:21:35.322Z,76.20
2023-04-12T08:24:02.262Z,76.20
2023-04-12T08:26:30.092Z,76.20
2023-04-12T08:28:58.486Z,76.20
2023-04-12T08:31:25.434Z,75.90
2023-04-12T08:33:52.362Z,76.00
2023-04-12T08:36:19.351Z,76.00
2023-04-12T08:38:46.865Z,76.10
2023-04-12T08:41:14.815Z,76.20
2023-04-12T08:43:45.440Z,76.20
2023-04-12T08:46:15.831Z,76.20
2023-04-12T08:48:46.939Z,76.10
2023-04-12T08:51:15.057Z,76.30
2023-04-12T08:53:41.984Z,76.40
2023-04-12T08:56:11.587Z,76.40
2023-04-12T08:58:42.061Z,76.10
2023-04-12T09:01:12.268Z,76.10
2023-04-12T09:03:39.598Z,76.20
2023-04-12T09:06:06.981Z,75.90
2023-04-12T09:08:34.257Z,75.60
2023-04-12T09:11:01.178Z,75.30
2023-04-12T09:13:35.626Z,75.20
2023-04-12T09:16:03.238Z,75.10
2023-04-12T09:18:30.360Z,74.90
2023-04-12T09:21:07.813Z,74.80
2023-04-12T09:23:37.539Z,74.50
2023-04-12T09:26:04.605Z,74.50
2023-04-12T09:28:31.849Z,74.40
2023-04-12T09:30:59.355Z,74.30
2023-04-12T09:33:39.285Z,73.90
2023-04-12T09:36:09.351Z,73.40
2023-04-12T09:38:37.344Z,73.50
2023-04-12T09:41:26.413Z,73.30
2023-04-12T09:43:54.298Z,72.70
2023-04-12T09:46:21.280Z,72.10
2023-04-12T09:48:52.395Z,72.00
2023-04-12T09:51:29.859Z,71.90
2023-04-12T09:54:04.308Z,71.60
2023-04-12T09:56:32.559Z,71.70
2023-04-12T09:59:01.172Z,71.70
2023-04-12T10:01:29.265Z,71.70
2023-04-12T10:03:57.188Z,71.80
2023-04-12T10:06:26.725Z,72.00
2023-04-12T10:08:54.478Z,72.20
2023-04-12T10:11:21.402Z,72.30
2023-04-12T10:13:49.570Z,72.30
2023-04-12T10:16:16.822Z,71.70
2023-04-12T10:18:44.191Z,71.70
2023-04-12T10:21:11.949Z,71.50
2023-04-12T10:23:39.033Z,71.40
2023-04-12T10:26:06.077Z,71.10
2023-04-12T10:28:32.969Z,70.70
2023-04-12T10:31:00.138Z,70.50
2023-04-12T10:33:28.006Z,70.10
2023-04-12T10:35:59.721Z,69.30
2023-04-12T10:38:33.007Z,69.60
2023-04-12T10:41:18.069Z,69.70
2023-04-12T10:43:45.100Z,69.80
2023-04-12T10:46:46.975Z,69.40
2023-04-12T10:49:14.630Z,69.40
2023-04-12T10:52:10.930Z,69.00
2023-04-12T10:54:37.779Z,68.70
2023-04-12T10:57:04.943Z,67.90
2023-04-12T10:59:51.126Z,67.10
2023-04-12T11:02:18.450Z,66.80
2023-04-12T11:05:04.580Z,66.80
2023-04-12T11:07:42.004Z,66.80
2023-04-12T11:10:16.206Z,66.50
2023-04-12T11:12:57.571Z,66.10
2023-04-12T11:15:30.103Z,65.50
2023-04-12T11:17:58.015Z,65.50
2023-04-12T11:20:27.246Z,65.40
2023-04-12T11:22:55.068Z,65.20
2023-04-12T11:25:21.916Z,63.70
2023-04-12T11:27:52.928Z,60.90
2023-04-12T11:30:20.420Z,61.00
2023-04-12T11:32:47.917Z,58.60
2023-04-12T11:35:18.367Z,59.50
2023-04-12T11:37:45.884Z,59.10
2023-04-12T11:40:12.835Z,58.20
2023-04-12T11:42:39.848Z,58.20
2023-04-12T11:45:14.348Z,57.90
2023-04-12T11:47:44.868Z,57.60
2023-04-12T11:50:12.776Z,57.40
2023-04-12T11:52:42.440Z,57.00
2023-04-12T11:55:11.405Z,56.60
2023-04-12T11:57:39.183Z,56.00
2023-04-12T12:00:07.215Z,56.00
2023-04-12T12:02:43.160Z,55.90
2023-04-12T12:05:13.643Z,56.10
2023-04-12T12:07:41.171Z,56.20
2023-04-12T12:10:08.611Z,56.20
2023-04-12T12:12:35.752Z,56.20
2023-04-12T12:15:02.877Z,56.20
2023-04-12T12:17:29.905Z,56.10
2023-04-12T12:19:57.439Z,56.10
2023-04-12T12:22:24.408Z,56.10
2023-04-12T12:24:58.669Z,56.30
2023-04-12T12:27:36.041Z,56.30
2023-04-12T12:30:04.518Z,56.30
2023-04-12T12:32:35.758Z,56.50
2023-04-12T12:35:03.679Z,56.20
2023-04-12T12:37:31.137Z,56.30
2023-04-12T12:40:01.165Z,56.00
2023-04-12T12:42:29.281Z,55.80
2023-04-12T12:44:56.283Z,55.90
2023-04-12T12:47:23.444Z,56.20
2023-04-12T12:49:50.708Z,56.10
2023-04-12T12:52:18.091Z,56.00
2023-04-12T12:54:45.084Z,55.90
2023-04-12T12:57:12.227Z,56.10
2023-04-12T12:59:40.358Z,55.90
2023-04-12T13:02:07.900Z,55.60
2023-04-12T13:04:35.189Z,55.60
2023-04-12T13:07:02.318Z,55.90
2023-04-12T13:09:29.244Z,56.00
2023-04-12T13:11:57.857Z,56.30
2023-04-12T13:14:24.845Z,56.30
2023-04-12T13:16:51.958Z,56.60
2023-04-12T13:19:19.062Z,56.80
2023-04-12T13:21:46.047Z,56.80
2023-04-12T13:24:13.148Z,56.70
2023-04-12T13:26:42.765Z,56.80
2023-04-12T13:29:09.701Z,56.60
2023-04-12T13:31:36.796Z,56.50
2023-04-12T13:34:03.692Z,56.50
2023-04-12T13:36:31.356Z,56.40
2023-04-12T13:38:58.411Z,56.10
2023-04-12T13:41:26.060Z,55.90
2023-04-12T13:43:53.043Z,55.80
2023-04-12T13:46:20.266Z,55.80
2023-04-12T13:48:47.303Z,55.80
2023-04-12T13:51:14.584Z,55.90
2023-04-12T13:53:41.603Z,56.10
2023-04-12T13:56:08.729Z,56.20
2023-04-12T13:58:36.067Z,56.20
2023-04-12T14:01:03.395Z,56.50
2023-04-12T14:03:30.346Z,56.70
2023-04-12T14:05:57.690Z,57.00
2023-04-12T14:08:24.713Z,57.20
2023-04-12T14:10:51.704Z,57.10
2023-04-12T14:13:18.788Z,57.00
2023-04-12T14:15:45.862Z,57.00
2023-04-12T14:18:12.885Z,57.00
2023-04-12T14:20:40.147Z,57.10
2023-04-12T14:23:08.111Z,57.10
2023-04-12T14:25:37.200Z,57.20
2023-04-12T14:28:04.118Z,57.20
2023-04-12T14:30:31.367Z,57.20
2023-04-12T14:32:58.449Z,57.10
2023-04-12T14:35:25.573Z,57.10
2023-04-12T14:37:52.488Z,57.20
2023-04-12T14:40:19.503Z,57.30
2023-04-12T14:42:46.413Z,57.40
2023-04-12T14:45:13.480Z,57.50
2023-04-12T14:47:41.640Z,57.70
2023-04-12T14:50:08.835Z,58.00
2023-04-12T14:52:35.864Z,58.10
2023-04-12T14:55:02.784Z,58.00
2023-04-12T14:57:29.682Z,57.90
2023-04-12T14:59:57.098Z,57.70
2023-04-12T15:02:24.978Z,57.70
2023-04-12T15:04:52.076Z,57.70
2023-04-12T15:07:19.346Z,57.80
2023-04-12T15:09:46.169Z,57.90
2023-04-12T15:12:13.141Z,57.90
2023-04-12T15:14:41.191Z,58.00
2023-04-12T15:17:08.503Z,58.20
2023-04-12T15:19:35.828Z,58.60
2023-04-12T15:22:02.717Z,58.70
2023-04-12T15:24:31.108Z,58.80
2023-04-12T15:26:58.206Z,58.80
2023-04-12T15:29:27.768Z,58.90
2023-04-12T15:31:56.694Z,59.10
2023-04-12T15:34:25.331Z,59.20
2023-04-12T15:36:53.064Z,59.40
2023-04-12T15:39:20.214Z,59.60
2023-04-12T15:41:47.219Z,59.70
2023-04-12T15:44:14.346Z,59.80
2023-04-12T15:46:41.880Z,59.80
2023-04-12T15:49:09.760Z,59.90
2023-04-12T15:51:36.803Z,60.00
2023-04-12T15:54:05.487Z,60.00
2023-04-12T15:56:32.820Z,60.00
2023-04-12T15:59:01.288Z,60.00
2023-04-12T16:01:29.288Z,60.10
2023-04-12T16:03:56.531Z,60.20
2023-04-12T16:06:25.377Z,60.40
2023-04-12T16:08:53.855Z,60.60
2023-04-12T16:11:24.060Z,60.70
2023-04-12T16:13:51.841Z,60.80
2023-04-12T16:16:20.056Z,61.00
2023-04-12T16:18:47.600Z,61.10
2023-04-12T16:21:16.763Z,61.10
2023-04-12T16:23:44.715Z,61.10
2023-04-12T16:26:14.541Z,61.10
2023-04-12T16:28:44.192Z,61.30
2023-04-12T16:31:11.210Z,61.30
2023-04-12T16:33:38.200Z,61.40
2023-04-12T16:36:05.253Z,61.40
2023-04-12T16:38:34.046Z,61.50
2023-04-12T16:41:01.702Z,61.50
2023-04-12T16:43:28.564Z,61.50
2023-04-12T16:45:55.521Z,61.50
2023-04-12T16:48:22.999Z,61.50
2023-04-12T16:50:50.281Z,61.60
2023-04-12T16:53:17.247Z,61.70
2023-04-12T16:55:46.245Z,61.90
2023-04-12T16:58:14.531Z,62.10
2023-04-12T17:00:43.200Z,62.20
2023-04-12T17:03:11.775Z,62.40
2023-04-12T17:05:40.294Z,62.50
2023-04-12T17:08:10.151Z,62.60
2023-04-12T17:10:37.766Z,62.60
2023-04-12T17:13:05.137Z,62.80
2023-04-12T17:15:32.457Z,63.00
2023-04-12T17:18:05.277Z,63.40
2023-04-12T17:20:33.640Z,63.40
2023-04-12T17:23:00.962Z,63.70
2023-04-12T17:25:31.169Z,63.90
2023-04-12T17:28:03.245Z,64.20
2023-04-12T17:30:30.265Z,64.20
2023-04-12T17:32:58.351Z,64.20
2023-04-12T17:35:25.310Z,64.50
2023-04-12T17:37:52.231Z,64.70
2023-04-12T17:40:19.412Z,64.80
2023-04-12T17:42:46.388Z,65.00
2023-04-12T17:45:14.798Z,65.30
2023-04-12T17:47:42.761Z,65.40
2023-04-12T17:50:10.499Z,65.50
2023-04-12T17:52:37.459Z,65.50
2023-04-12T17:55:05.625Z,65.70
2023-04-12T17:57:32.874Z,65.90
2023-04-12T17:59:59.831Z,66.00
2023-04-12T18:02:27.610Z,66.30
2023-04-12T18:04:54.805Z,66.50
2023-04-12T18:07:21.808Z,66.60
2023-04-12T18:09:48.943Z,66.80
2023-04-12T18:12:16.043Z,66.80
2023-04-12T18:14:43.022Z,66.60
2023-04-12T18:17:10.535Z,66.80
2023-04-12T18:19:37.535Z,67.00
2023-04-12T18:22:05.302Z,67.20
2023-04-12T18:24:32.347Z,67.20
2023-04-12T18:26:59.474Z,67.40
2023-04-12T18:29:26.602Z,67.40
2023-04-12T18:31:55.379Z,67.60
2023-04-12T18:34:22.977Z,68.00
2023-04-12T18:36:49.990Z,68.20
2023-04-12T18:39:17.096Z,68.40
2023-04-12T18:41:44.008Z,68.50
2023-04-12T18:44:12.008Z,68.60
2023-04-12T18:46:42.273Z,68.70
2023-04-12T18:49:09.340Z,68.70
2023-04-12T18:51:36.633Z,68.90
2023-04-12T18:54:03.666Z,68.80
2023-04-12T18:56:30.689Z,68.90
2023-04-12T18:58:57.887Z,69.10
2023-04-12T19:01:25.407Z,69.20
2023-04-12T19:03:52.611Z,69.50
2023-04-12T19:06:20.306Z,69.60
2023-04-12T19:08:48.666Z,69.70
2023-04-12T19:11:16.079Z,69.80
2023-04-12T19:13:42.916Z,69.80
2023-04-12T19:16:11.214Z,69.80
2023-04-12T19:18:38.245Z,69.90
2023-04-12T19:23:49.995Z,70.20
2023-04-12T19:26:17.868Z,70.20
2023-04-12T19:28:47.298Z,70.10
2023-04-12T19:31:15.005Z,70.20
2023-04-12T19:33:42.552Z,70.30
2023-04-12T19:36:10.904Z,70.50
2023-04-12T19:38:41.509Z,70.60
2023-04-12T19:41:08.561Z,70.70
2023-04-12T19:43:35.754Z,70.80
2023-04-12T19:46:03.745Z,70.90
2023-04-12T19:48:31.296Z,70.80
2023-04-12T19:50:58.314Z,70.70
2023-04-12T19:53:26.060Z,70.80
2023-04-12T19:55:57.173Z,70.80
2023-04-12T19:58:25.182Z,70.90
2023-04-12T20:00:53.410Z,71.00
2023-04-12T20:03:20.788Z,71.10
2023-04-12T20:05:48.017Z,71.10
2023-04-12T20:08:16.141Z,71.10
2023-04-12T20:10:43.192Z,71.10
2023-04-12T20:13:15.306Z,71.10
2023-04-12T20:15:42.971Z,71.20
2023-04-12T20:18:11.447Z,71.30
2023-04-12T20:20:38.649Z,71.40
2023-04-12T20:23:05.600Z,71.40
2023-04-12T20:25:37.870Z,71.40
2023-04-12T20:28:04.972Z,71.60
2023-04-12T20:30:31.897Z,71.70
2023-04-12T20:33:01.126Z,71.70
2023-04-12T20:35:28.284Z,71.60
2023-04-12T20:37:56.578Z,71.60
2023-04-12T20:40:27.149Z,71.60
2023-04-12T20:42:54.274Z,71.60
2023-04-12T20:45:22.216Z,71.60
2023-04-12T20:47:49.423Z,71.60
2023-04-12T20:50:17.671Z,71.50
2023-04-12T20:52:45.602Z,71.50
2023-04-12T20:55:14.249Z,71.50
2023-04-12T20:57:41.265Z,71.50
2023-04-12T21:00:17.325Z,71.50
2023-04-12T21:02:45.840Z,71.40
2023-04-12T21:05:13.734Z,71.40
2023-04-12T21:07:41.710Z,71.40
2023-04-12T21:10:12.392Z,71.40
2023-04-12T21:12:40.063Z,71.50
2023-04-12T21:15:08.024Z,71.60
2023-04-12T21:17:41.734Z,71.60
2023-04-12T21:20:11.718Z,71.50
2023-04-12T21:22:38.701Z,71.50
2023-04-12T21:25:07.505Z,71.50
2023-04-12T21:27:35.510Z,71.50
2023-04-12T21:30:04.441Z,71.60
2023-04-12T21:32:32.630Z,71.30
2023-04-12T21:35:00.253Z,71.30
2023-04-12T21:37:27.177Z,71.40
2023-04-12T21:39:54.211Z,71.50
2023-04-12T21:42:21.155Z,71.50
2023-04-12T21:44:48.107Z,71.40
2023-04-12T21:47:15.474Z,71.50
2023-04-12T21:49:42.493Z,71.70
2023-04-12T21:52:09.364Z,71.70
2023-04-12T21:54:37.211Z,71.60
2023-04-12T21:57:04.220Z,71.80
2023-04-12T21:59:31.087Z,71.80
2023-04-12T22:01:58.163Z,71.80
2023-04-12T22:04:25.112Z,71.90
2023-04-12T22:06:52.734Z,72.00
2023-04-12T22:09:20.521Z,72.00
2023-04-12T22:11:49.195Z,72.00
2023-04-12T22:14:16.092Z,72.00
2023-04-12T22:16:43.167Z,71.90
2023-04-12T22:19:10.217Z,72.00
2023-04-12T22:21:37.512Z,72.00
2023-04-12T22:24:04.481Z,72.00
2023-04-12T22:26:31.673Z,71.90
2023-04-12T22:28:58.542Z,72.00
2023-04-12T22:31:26.276Z,72.10
2023-04-12T22:33:55.049Z,72.00
2023-04-12T22:36:22.222Z,72.10
2023-04-12T22:38:49.162Z,72.10
2023-04-12T22:41:16.553Z,72.10
2023-04-12T22:43:43.470Z,72.20
2023-04-12T22:46:16.335Z,72.30
2023-04-12T22:48:44.062Z,72.40
2023-04-12T22:51:11.150Z,72.50
2023-04-12T22:53:38.190Z,72.60
2023-04-12T22:56:05.302Z,72.60
2023-04-12T22:58:32.213Z,72.80
2023-04-12T23:00:59.102Z,72.90
2023-04-12T23:03:26.080Z,73.00
2023-04-12T23:05:53.093Z,73.20
2023-04-12T23:08:20.451Z,73.20
2023-04-12T23:10:47.349Z,73.20
2023-04-12T23:13:14.261Z,73.30
2023-04-12T23:15:41.674Z,73.40
2023-04-12T23:18:08.897Z,73.60
2023-04-12T23:20:35.898Z,73.70
2023-04-12T23:23:02.846Z,73.80
2023-04-12T23:25:41.457Z,74.00
2023-04-12T23:28:15.458Z,74.10
2023-04-12T23:30:43.822Z,74.10
2023-04-12T23:33:12.395Z,74.30
2023-04-12T23:35:41.256Z,74.50
2023-04-12T23:38:08.808Z,74.60
2023-04-12T23:40:35.678Z,74.70
2023-04-12T23:43:02.780Z,74.80
2023-04-12T23:45:29.947Z,75.00
2023-04-12T23:47:57.380Z,75.10
2023-04-12T23:50:24.625Z,75.10
2023-04-12T23:52:51.530Z,75.20
2023-04-12T23:55:18.513Z,75.30
2023-04-12T23:57:45.536Z,75.40
